sensor_id;sensor_type;location;lat;lon;timestamp;P1;durP1;ratioP1;P2;durP2;ratioP2
19161;SDS011;9713;48.140;11.530;2023-03-31T00:02:50;10.37;;;5.50;;
19161;SDS011;9713;48.140;11.530;2023-03-31T00:06:35;9.37;;;5.00;;
19161;SDS011;9713;48.140;11.530;2023-03-31T00:10:19;11.00;;;5.00;;
19161;SDS011;9713;48.140;11.530;2023-03-31T00:14:06;11.17;;;4.97;;
19161;SDS011;9713;48.140;11.530;2023-03-31T00:17:53;10.80;;;5.23;;
19161;SDS011;9713;48.140;11.530;2023-03-31T00:21:41;12.70;;;6.43;;
19161;SDS011;9713;48.140;11.530;2023-03-31T00:25:24;8.47;;;5.10;;
19161;SDS011;9713;48.140;11.530;2023-03-31T00:29:07;8.07;;;5.00;;
19161;SDS011;9713;48.140;11.530;2023-03-31T00:32:50;7.90;;;5.20;;
19161;SDS011;9713;48.140;11.530;2023-03-31T00:36:35;11.40;;;5.53;;
19161;SDS011;9713;48.140;11.530;2023-03-31T00:40:26;11.30;;;5.20;;
19161;SDS011;9713;48.140;11.530;2023-03-31T00:44:09;13.50;;;4.90;;
19161;SDS011;9713;48.140;11.530;2023-03-31T00:47:56;11.97;;;5.37;;
19161;SDS011;9713;48.140;11.530;2023-03-31T00:51:45;10.90;;;5.10;;
19161;SDS011;9713;48.140;11.530;2023-03-31T00:55:32;8.83;;;5.00;;
19161;SDS011;9713;48.140;11.530;2023-03-31T00:59:16;14.83;;;5.30;;
19161;SDS011;9713;48.140;11.530;2023-03-31T01:03:00;10.00;;;5.37;;
19161;SDS011;9713;48.140;11.530;2023-03-31T01:06:50;9.40;;;5.13;;
19161;SDS011;9713;48.140;11.530;2023-03-31T01:10:38;8.43;;;4.70;;
19161;SDS011;9713;48.140;11.530;2023-03-31T01:14:22;11.30;;;5.10;;
19161;SDS011;9713;48.140;11.530;2023-03-31T01:18:05;12.20;;;5.87;;
19161;SDS011;9713;48.140;11.530;2023-03-31T01:26:06;10.30;;;4.63;;
19161;SDS011;9713;48.140;11.530;2023-03-31T01:30:07;8.33;;;4.80;;
19161;SDS011;9713;48.140;11.530;2023-03-31T01:38:23;8.67;;;4.80;;
19161;SDS011;9713;48.140;11.530;2023-03-31T01:42:18;9.07;;;5.50;;
19161;SDS011;9713;48.140;11.530;2023-03-31T01:46:04;10.60;;;5.40;;
19161;SDS011;9713;48.140;11.530;2023-03-31T01:49:55;10.63;;;5.63;;
19161;SDS011;9713;48.140;11.530;2023-03-31T01:53:41;11.17;;;5.40;;
19161;SDS011;9713;48.140;11.530;2023-03-31T01:57:28;11.80;;;5.30;;
19161;SDS011;9713;48.140;11.530;2023-03-31T02:01:13;10.50;;;5.30;;
19161;SDS011;9713;48.140;11.530;2023-03-31T02:05:00;12.80;;;5.80;;
19161;SDS011;9713;48.140;11.530;2023-03-31T02:08:47;11.87;;;6.30;;
19161;SDS011;9713;48.140;11.530;2023-03-31T02:12:34;11.83;;;5.60;;
19161;SDS011;9713;48.140;11.530;2023-03-31T02:16:18;8.73;;;5.00;;
19161;SDS011;9713;48.140;11.530;2023-03-31T02:20:05;11.87;;;6.23;;
19161;SDS011;9713;48.140;11.530;2023-03-31T02:23:51;11.33;;;5.87;;
19161;SDS011;9713;48.140;11.530;2023-03-31T02:27:36;9.83;;;5.57;;
19161;SDS011;9713;48.140;11.530;2023-03-31T02:31:24;10.47;;;5.47;;
19161;SDS011;9713;48.140;11.530;2023-03-31T02:35:10;11.20;;;5.60;;
19161;SDS011;9713;48.140;11.530;2023-03-31T02:38:54;8.30;;;5.57;;
19161;SDS011;9713;48.140;11.530;2023-03-31T02:42:42;9.47;;;5.70;;
19161;SDS011;9713;48.140;11.530;2023-03-31T02:46:25;8.73;;;5.80;;
19161;SDS011;9713;48.140;11.530;2023-03-31T02:50:09;8.43;;;5.33;;
19161;SDS011;9713;48.140;11.530;2023-03-31T02:53:57;7.47;;;5.33;;
19161;SDS011;9713;48.140;11.530;2023-03-31T02:58:10;11.80;;;4.83;;
19161;SDS011;9713;48.140;11.530;2023-03-31T03:02:07;9.33;;;5.60;;
19161;SDS011;9713;48.140;11.530;2023-03-31T03:05:57;10.77;;;5.60;;
19161;SDS011;9713;48.140;11.530;2023-03-31T03:09:48;8.57;;;5.53;;
19161;SDS011;9713;48.140;11.530;2023-03-31T03:13:42;11.50;;;5.80;;
19161;SDS011;9713;48.140;11.530;2023-03-31T03:17:28;10.83;;;5.73;;
19161;SDS011;9713;48.140;11.530;2023-03-31T03:21:12;9.97;;;5.80;;
19161;SDS011;9713;48.140;11.530;2023-03-31T03:24:55;10.50;;;6.00;;
19161;SDS011;9713;48.140;11.530;2023-03-31T03:28:38;9.60;;;5.33;;
19161;SDS011;9713;48.140;11.530;2023-03-31T03:32:22;9.70;;;5.40;;
19161;SDS011;9713;48.140;11.530;2023-03-31T03:36:06;10.67;;;5.20;;
19161;SDS011;9713;48.140;11.530;2023-03-31T03:39:50;11.20;;;6.03;;
19161;SDS011;9713;48.140;11.530;2023-03-31T03:43:32;9.50;;;5.50;;
19161;SDS011;9713;48.140;11.530;2023-03-31T03:47:15;12.50;;;6.77;;
19161;SDS011;9713;48.140;11.530;2023-03-31T03:50:59;10.80;;;5.50;;
19161;SDS011;9713;48.140;11.530;2023-03-31T03:54:42;11.97;;;6.13;;
19161;SDS011;9713;48.140;11.530;2023-03-31T03:58:25;12.07;;;5.63;;
19161;SDS011;9713;48.140;11.530;2023-03-31T04:02:07;10.70;;;5.80;;
19161;SDS011;9713;48.140;11.530;2023-03-31T04:05:50;10.17;;;6.27;;
19161;SDS011;9713;48.140;11.530;2023-03-31T04:09:34;9.73;;;5.90;;
19161;SDS011;9713;48.140;11.530;2023-03-31T04:13:18;11.20;;;5.90;;
19161;SDS011;9713;48.140;11.530;2023-03-31T04:17:02;10.67;;;6.83;;
19161;SDS011;9713;48.140;11.530;2023-03-31T04:20:44;10.27;;;5.83;;
19161;SDS011;9713;48.140;11.530;2023-03-31T04:24:36;11.53;;;6.23;;
19161;SDS011;9713;48.140;11.530;2023-03-31T04:28:19;16.87;;;6.73;;
19161;SDS011;9713;48.140;11.530;2023-03-31T04:32:01;10.40;;;6.13;;
19161;SDS011;9713;48.140;11.530;2023-03-31T04:35:47;12.63;;;6.43;;
19161;SDS011;9713;48.140;11.530;2023-03-31T04:39:30;10.77;;;6.20;;
19161;SDS011;9713;48.140;11.530;2023-03-31T04:43:14;11.90;;;6.03;;
19161;SDS011;9713;48.140;11.530;2023-03-31T04:46:57;14.37;;;6.47;;
19161;SDS011;9713;48.140;11.530;2023-03-31T04:50:45;12.10;;;6.67;;
19161;SDS011;9713;48.140;11.530;2023-03-31T04:54:27;11.87;;;6.43;;
19161;SDS011;9713;48.140;11.530;2023-03-31T04:58:10;12.93;;;6.70;;
19161;SDS011;9713;48.140;11.530;2023-03-31T05:01:54;11.40;;;6.70;;
19161;SDS011;9713;48.140;11.530;2023-03-31T05:05:37;14.43;;;7.20;;
19161;SDS011;9713;48.140;11.530;2023-03-31T05:09:20;12.47;;;7.13;;
19161;SDS011;9713;48.140;11.530;2023-03-31T05:13:02;13.77;;;7.07;;
19161;SDS011;9713;48.140;11.530;2023-03-31T05:16:45;13.30;;;7.63;;
19161;SDS011;9713;48.140;11.530;2023-03-31T05:20:29;12.00;;;6.90;;
19161;SDS011;9713;48.140;11.530;2023-03-31T05:24:12;10.90;;;6.27;;
19161;SDS011;9713;48.140;11.530;2023-03-31T05:27:55;12.57;;;7.97;;
19161;SDS011;9713;48.140;11.530;2023-03-31T05:31:37;13.33;;;7.10;;
19161;SDS011;9713;48.140;11.530;2023-03-31T05:35:20;10.37;;;6.70;;
19161;SDS011;9713;48.140;11.530;2023-03-31T05:39:05;16.10;;;7.87;;
19161;SDS011;9713;48.140;11.530;2023-03-31T05:42:48;15.57;;;8.07;;
19161;SDS011;9713;48.140;11.530;2023-03-31T05:46:31;15.13;;;6.63;;
19161;SDS011;9713;48.140;11.530;2023-03-31T05:50:15;10.13;;;6.17;;
19161;SDS011;9713;48.140;11.530;2023-03-31T05:53:58;12.33;;;6.23;;
19161;SDS011;9713;48.140;11.530;2023-03-31T05:57:42;8.87;;;6.13;;
19161;SDS011;9713;48.140;11.530;2023-03-31T06:01:25;10.97;;;6.40;;
19161;SDS011;9713;48.140;11.530;2023-03-31T06:05:08;10.30;;;5.90;;
19161;SDS011;9713;48.140;11.530;2023-03-31T06:08:51;10.43;;;6.33;;
19161;SDS011;9713;48.140;11.530;2023-03-31T06:12:33;12.47;;;6.53;;
19161;SDS011;9713;48.140;11.530;2023-03-31T06:16:18;9.83;;;6.07;;
19161;SDS011;9713;48.140;11.530;2023-03-31T06:20:03;20.67;;;9.17;;
19161;SDS011;9713;48.140;11.530;2023-03-31T06:24:04;14.47;;;6.37;;
19161;SDS011;9713;48.140;11.530;2023-03-31T06:27:47;10.63;;;6.17;;
19161;SDS011;9713;48.140;11.530;2023-03-31T06:31:31;12.93;;;6.23;;
19161;SDS011;9713;48.140;11.530;2023-03-31T06:35:14;12.77;;;6.07;;
19161;SDS011;9713;48.140;11.530;2023-03-31T06:38:57;12.20;;;6.00;;
19161;SDS011;9713;48.140;11.530;2023-03-31T06:42:39;13.47;;;5.80;;
19161;SDS011;9713;48.140;11.530;2023-03-31T06:46:22;11.80;;;5.73;;
19161;SDS011;9713;48.140;11.530;2023-03-31T06:50:06;11.60;;;5.67;;
19161;SDS011;9713;48.140;11.530;2023-03-31T06:53:50;13.00;;;5.87;;
19161;SDS011;9713;48.140;11.530;2023-03-31T06:57:33;8.70;;;5.57;;
19161;SDS011;9713;48.140;11.530;2023-03-31T07:01:16;10.00;;;5.17;;
19161;SDS011;9713;48.140;11.530;2023-03-31T07:04:59;9.73;;;5.57;;
19161;SDS011;9713;48.140;11.530;2023-03-31T07:08:43;9.47;;;5.67;;
19161;SDS011;9713;48.140;11.530;2023-03-31T07:12:26;9.13;;;6.00;;
19161;SDS011;9713;48.140;11.530;2023-03-31T07:16:09;10.07;;;5.87;;
19161;SDS011;9713;48.140;11.530;2023-03-31T07:19:54;14.77;;;5.80;;
19161;SDS011;9713;48.140;11.530;2023-03-31T07:23:38;11.63;;;5.70;;
19161;SDS011;9713;48.140;11.530;2023-03-31T07:27:22;13.03;;;6.70;;
19161;SDS011;9713;48.140;11.530;2023-03-31T07:31:10;10.47;;;6.30;;
19161;SDS011;9713;48.140;11.530;2023-03-31T07:34:53;17.60;;;6.90;;
19161;SDS011;9713;48.140;11.530;2023-03-31T07:38:35;10.53;;;6.23;;
19161;SDS011;9713;48.140;11.530;2023-03-31T07:42:18;11.93;;;6.90;;
19161;SDS011;9713;48.140;11.530;2023-03-31T07:46:02;12.73;;;6.90;;
19161;SDS011;9713;48.140;11.530;2023-03-31T07:49:46;16.07;;;7.10;;
19161;SDS011;9713;48.140;11.530;2023-03-31T07:53:29;10.33;;;6.30;;
19161;SDS011;9713;48.140;11.530;2023-03-31T07:57:12;12.40;;;6.57;;
19161;SDS011;9713;48.140;11.530;2023-03-31T08:00:56;14.63;;;6.90;;
19161;SDS011;9713;48.140;11.530;2023-03-31T08:04:40;10.57;;;6.87;;
19161;SDS011;9713;48.140;11.530;2023-03-31T08:08:23;14.03;;;7.60;;
19161;SDS011;9713;48.140;11.530;2023-03-31T08:12:06;13.97;;;8.20;;
19161;SDS011;9713;48.140;11.530;2023-03-31T08:15:49;12.87;;;7.37;;
19161;SDS011;9713;48.140;11.530;2023-03-31T08:19:31;13.17;;;7.07;;
19161;SDS011;9713;48.140;11.530;2023-03-31T08:23:15;9.93;;;5.97;;
19161;SDS011;9713;48.140;11.530;2023-03-31T08:26:58;13.80;;;6.77;;
19161;SDS011;9713;48.140;11.530;2023-03-31T08:30:41;9.33;;;5.73;;
19161;SDS011;9713;48.140;11.530;2023-03-31T08:34:24;11.43;;;6.40;;
19161;SDS011;9713;48.140;11.530;2023-03-31T08:38:07;10.33;;;5.70;;
19161;SDS011;9713;48.140;11.530;2023-03-31T08:41:53;8.93;;;5.73;;
19161;SDS011;9713;48.140;11.530;2023-03-31T08:45:40;9.80;;;5.80;;
19161;SDS011;9713;48.140;11.530;2023-03-31T08:49:24;11.10;;;5.40;;
19161;SDS011;9713;48.140;11.530;2023-03-31T08:53:12;8.43;;;4.63;;
19161;SDS011;9713;48.140;11.530;2023-03-31T08:57:03;6.70;;;4.17;;
19161;SDS011;9713;48.140;11.530;2023-03-31T09:00:49;6.33;;;3.57;;
19161;SDS011;9713;48.140;11.530;2023-03-31T09:09:00;8.17;;;4.00;;
19161;SDS011;9713;48.140;11.530;2023-03-31T09:12:47;7.23;;;4.27;;
19161;SDS011;9713;48.140;11.530;2023-03-31T09:16:34;6.70;;;4.03;;
19161;SDS011;9713;48.140;11.530;2023-03-31T09:20:20;6.57;;;4.00;;
19161;SDS011;9713;48.140;11.530;2023-03-31T09:24:05;10.20;;;4.67;;
19161;SDS011;9713;48.140;11.530;2023-03-31T09:27:54;7.37;;;4.70;;
19161;SDS011;9713;48.140;11.530;2023-03-31T09:31:38;6.03;;;3.80;;
19161;SDS011;9713;48.140;11.530;2023-03-31T09:35:23;9.20;;;3.90;;
19161;SDS011;9713;48.140;11.530;2023-03-31T09:39:08;6.83;;;3.50;;
19161;SDS011;9713;48.140;11.530;2023-03-31T09:42:57;7.60;;;2.87;;
19161;SDS011;9713;48.140;11.530;2023-03-31T09:46:41;5.27;;;2.80;;
19161;SDS011;9713;48.140;11.530;2023-03-31T09:50:24;7.03;;;3.00;;
19161;SDS011;9713;48.140;11.530;2023-03-31T09:54:09;7.20;;;2.97;;
19161;SDS011;9713;48.140;11.530;2023-03-31T09:58:00;5.80;;;2.93;;
19161;SDS011;9713;48.140;11.530;2023-03-31T10:01:43;9.43;;;3.30;;
19161;SDS011;9713;48.140;11.530;2023-03-31T10:05:27;5.07;;;2.93;;
19161;SDS011;9713;48.140;11.530;2023-03-31T10:09:11;5.37;;;2.80;;
19161;SDS011;9713;48.140;11.530;2023-03-31T10:12:54;6.50;;;3.00;;
19161;SDS011;9713;48.140;11.530;2023-03-31T10:16:43;6.27;;;3.23;;
19161;SDS011;9713;48.140;11.530;2023-03-31T10:20:30;7.13;;;3.23;;
19161;SDS011;9713;48.140;11.530;2023-03-31T10:24:16;8.67;;;3.40;;
19161;SDS011;9713;48.140;11.530;2023-03-31T10:27:59;7.40;;;3.30;;
19161;SDS011;9713;48.140;11.530;2023-03-31T10:31:44;6.00;;;2.77;;
19161;SDS011;9713;48.140;11.530;2023-03-31T10:35:28;5.03;;;3.00;;
19161;SDS011;9713;48.140;11.530;2023-03-31T10:39:14;6.70;;;3.60;;
19161;SDS011;9713;48.140;11.530;2023-03-31T10:42:58;5.40;;;3.50;;
19161;SDS011;9713;48.140;11.530;2023-03-31T10:46:46;7.13;;;3.30;;
19161;SDS011;9713;48.140;11.530;2023-03-31T10:50:31;6.97;;;3.03;;
19161;SDS011;9713;48.140;11.530;2023-03-31T10:54:14;6.87;;;3.30;;
19161;SDS011;9713;48.140;11.530;2023-03-31T10:57:58;5.10;;;3.47;;
19161;SDS011;9713;48.140;11.530;2023-03-31T11:01:49;5.67;;;3.33;;
19161;SDS011;9713;48.140;11.530;2023-03-31T11:05:42;6.97;;;3.70;;
19161;SDS011;9713;48.140;11.530;2023-03-31T11:09:33;9.70;;;3.87;;
19161;SDS011;9713;48.140;11.530;2023-03-31T11:13:22;6.07;;;3.63;;
19161;SDS011;9713;48.140;11.530;2023-03-31T11:17:12;7.40;;;3.40;;
19161;SDS011;9713;48.140;11.530;2023-03-31T11:21:04;6.80;;;3.70;;
19161;SDS011;9713;48.140;11.530;2023-03-31T11:25:01;6.87;;;2.40;;
19161;SDS011;9713;48.140;11.530;2023-03-31T11:28:55;4.00;;;1.37;;
19161;SDS011;9713;48.140;11.530;2023-03-31T11:32:53;2.33;;;1.37;;
19161;SDS011;9713;48.140;11.530;2023-03-31T11:36:47;2.40;;;1.40;;
19161;SDS011;9713;48.140;11.530;2023-03-31T11:40:44;3.20;;;1.40;;
19161;SDS011;9713;48.140;11.530;2023-03-31T11:44:35;3.03;;;1.40;;
19161;SDS011;9713;48.140;11.530;2023-03-31T11:48:25;2.23;;;1.37;;
19161;SDS011;9713;48.140;11.530;2023-03-31T11:52:16;3.20;;;1.60;;
19161;SDS011;9713;48.140;11.530;2023-03-31T11:56:02;5.67;;;1.60;;
19161;SDS011;9713;48.140;11.530;2023-03-31T11:59:51;3.70;;;2.60;;
19161;SDS011;9713;48.140;11.530;2023-03-31T12:03:40;3.10;;;1.60;;
19161;SDS011;9713;48.140;11.530;2023-03-31T12:07:28;3.70;;;1.60;;
19161;SDS011;9713;48.140;11.530;2023-03-31T12:11:14;5.73;;;1.60;;
19161;SDS011;9713;48.140;11.530;2023-03-31T12:15:03;3.80;;;1.70;;
19161;SDS011;9713;48.140;11.530;2023-03-31T12:18:57;3.77;;;1.63;;
19161;SDS011;9713;48.140;11.530;2023-03-31T12:22:44;2.13;;;1.53;;
19161;SDS011;9713;48.140;11.530;2023-03-31T12:26:34;4.57;;;1.40;;
19161;SDS011;9713;48.140;11.530;2023-03-31T12:30:21;1.67;;;1.30;;
19161;SDS011;9713;48.140;11.530;2023-03-31T12:34:12;4.40;;;1.53;;
19161;SDS011;9713;48.140;11.530;2023-03-31T12:37:59;3.23;;;1.50;;
19161;SDS011;9713;48.140;11.530;2023-03-31T12:41:57;5.00;;;2.03;;
19161;SDS011;9713;48.140;11.530;2023-03-31T12:45:46;3.33;;;1.60;;
19161;SDS011;9713;48.140;11.530;2023-03-31T12:49:44;4.03;;;1.93;;
19161;SDS011;9713;48.140;11.530;2023-03-31T12:53:34;3.23;;;1.80;;
19161;SDS011;9713;48.140;11.530;2023-03-31T12:57:21;3.03;;;1.80;;
19161;SDS011;9713;48.140;11.530;2023-03-31T13:01:05;2.27;;;1.80;;
19161;SDS011;9713;48.140;11.530;2023-03-31T13:04:52;3.60;;;1.30;;
19161;SDS011;9713;48.140;11.530;2023-03-31T13:08:48;5.13;;;1.00;;
19161;SDS011;9713;48.140;11.530;2023-03-31T13:12:34;3.43;;;0.90;;
19161;SDS011;9713;48.140;11.530;2023-03-31T13:16:18;2.20;;;0.70;;
19161;SDS011;9713;48.140;11.530;2023-03-31T13:20:15;4.37;;;1.00;;
19161;SDS011;9713;48.140;11.530;2023-03-31T13:24:06;4.73;;;0.90;;
19161;SDS011;9713;48.140;11.530;2023-03-31T13:27:49;3.67;;;0.93;;
19161;SDS011;9713;48.140;11.530;2023-03-31T13:35:51;2.50;;;0.80;;
19161;SDS011;9713;48.140;11.530;2023-03-31T13:39:46;1.07;;;0.77;;
19161;SDS011;9713;48.140;11.530;2023-03-31T13:44:06;1.73;;;0.70;;
19161;SDS011;9713;48.140;11.530;2023-03-31T13:52:13;3.83;;;1.10;;
19161;SDS011;9713;48.140;11.530;2023-03-31T13:56:11;2.07;;;0.73;;
19161;SDS011;9713;48.140;11.530;2023-03-31T14:04:14;2.33;;;1.00;;
19161;SDS011;9713;48.140;11.530;2023-03-31T14:08:10;3.87;;;1.10;;
19161;SDS011;9713;48.140;11.530;2023-03-31T14:11:56;6.40;;;1.07;;
19161;SDS011;9713;48.140;11.530;2023-03-31T14:15:41;2.33;;;0.80;;
19161;SDS011;9713;48.140;11.530;2023-03-31T14:19:31;3.53;;;1.20;;
19161;SDS011;9713;48.140;11.530;2023-03-31T14:23:32;3.47;;;1.30;;
19161;SDS011;9713;48.140;11.530;2023-03-31T14:27:36;4.10;;;1.30;;
19161;SDS011;9713;48.140;11.530;2023-03-31T14:31:26;3.03;;;1.10;;
19161;SDS011;9713;48.140;11.530;2023-03-31T14:39:20;3.53;;;1.20;;
19161;SDS011;9713;48.140;11.530;2023-03-31T14:43:04;3.97;;;1.10;;
19161;SDS011;9713;48.140;11.530;2023-03-31T14:46:47;2.23;;;0.90;;
19161;SDS011;9713;48.140;11.530;2023-03-31T14:50:32;1.80;;;0.67;;
19161;SDS011;9713;48.140;11.530;2023-03-31T14:54:16;3.67;;;0.60;;
19161;SDS011;9713;48.140;11.530;2023-03-31T14:58:01;1.97;;;0.60;;
19161;SDS011;9713;48.140;11.530;2023-03-31T15:01:44;2.47;;;0.70;;
19161;SDS011;9713;48.140;11.530;2023-03-31T15:05:28;2.63;;;0.80;;
19161;SDS011;9713;48.140;11.530;2023-03-31T15:09:14;1.00;;;0.63;;
19161;SDS011;9713;48.140;11.530;2023-03-31T15:13:01;2.23;;;0.90;;
19161;SDS011;9713;48.140;11.530;2023-03-31T15:16:49;1.20;;;0.70;;
19161;SDS011;9713;48.140;11.530;2023-03-31T15:20:34;1.83;;;0.80;;
19161;SDS011;9713;48.140;11.530;2023-03-31T15:24:18;2.30;;;0.87;;
19161;SDS011;9713;48.140;11.530;2023-03-31T15:28:03;2.27;;;0.97;;
19161;SDS011;9713;48.140;11.530;2023-03-31T15:31:47;3.80;;;0.80;;
19161;SDS011;9713;48.140;11.530;2023-03-31T15:35:31;2.43;;;1.03;;
19161;SDS011;9713;48.140;11.530;2023-03-31T15:39:15;3.10;;;1.07;;
19161;SDS011;9713;48.140;11.530;2023-03-31T15:42:58;4.90;;;1.07;;
19161;SDS011;9713;48.140;11.530;2023-03-31T15:47:07;5.83;;;1.00;;
19161;SDS011;9713;48.140;11.530;2023-03-31T15:50:58;2.97;;;1.00;;
19161;SDS011;9713;48.140;11.530;2023-03-31T15:54:41;2.57;;;0.90;;
19161;SDS011;9713;48.140;11.530;2023-03-31T15:58:46;6.67;;;1.50;;
19161;SDS011;9713;48.140;11.530;2023-03-31T16:02:37;3.43;;;1.00;;
19161;SDS011;9713;48.140;11.530;2023-03-31T16:06:23;3.93;;;1.30;;
19161;SDS011;9713;48.140;11.530;2023-03-31T16:10:14;1.80;;;1.30;;
19161;SDS011;9713;48.140;11.530;2023-03-31T16:13:59;4.50;;;1.27;;
19161;SDS011;9713;48.140;11.530;2023-03-31T16:17:48;5.00;;;1.10;;
19161;SDS011;9713;48.140;11.530;2023-03-31T16:21:33;2.67;;;1.30;;
19161;SDS011;9713;48.140;11.530;2023-03-31T16:25:18;4.70;;;1.13;;
19161;SDS011;9713;48.140;11.530;2023-03-31T16:29:04;4.27;;;1.30;;
19161;SDS011;9713;48.140;11.530;2023-03-31T16:33:00;2.63;;;1.30;;
19161;SDS011;9713;48.140;11.530;2023-03-31T16:36:44;3.23;;;1.57;;
19161;SDS011;9713;48.140;11.530;2023-03-31T16:40:28;3.17;;;1.50;;
19161;SDS011;9713;48.140;11.530;2023-03-31T16:44:14;3.10;;;1.50;;
19161;SDS011;9713;48.140;11.530;2023-03-31T16:47:56;4.67;;;1.43;;
19161;SDS011;9713;48.140;11.530;2023-03-31T16:51:53;5.83;;;1.80;;
19161;SDS011;9713;48.140;11.530;2023-03-31T16:55:35;3.40;;;1.50;;
19161;SDS011;9713;48.140;11.530;2023-03-31T16:59:19;2.07;;;0.63;;
19161;SDS011;9713;48.140;11.530;2023-03-31T17:03:03;1.20;;;0.50;;
19161;SDS011;9713;48.140;11.530;2023-03-31T17:06:46;0.97;;;0.50;;
19161;SDS011;9713;48.140;11.530;2023-03-31T17:10:29;1.00;;;0.40;;
19161;SDS011;9713;48.140;11.530;2023-03-31T17:14:11;0.90;;;0.37;;
19161;SDS011;9713;48.140;11.530;2023-03-31T17:17:56;1.20;;;0.50;;
19161;SDS011;9713;48.140;11.530;2023-03-31T17:21:40;1.20;;;0.50;;
19161;SDS011;9713;48.140;11.530;2023-03-31T17:25:23;2.77;;;1.10;;
19161;SDS011;9713;48.140;11.530;2023-03-31T17:29:05;2.80;;;1.10;;
19161;SDS011;9713;48.140;11.530;2023-03-31T17:32:48;2.00;;;0.93;;
19161;SDS011;9713;48.140;11.530;2023-03-31T17:36:34;2.33;;;1.07;;
19161;SDS011;9713;48.140;11.530;2023-03-31T17:40:17;3.83;;;0.90;;
19161;SDS011;9713;48.140;11.530;2023-03-31T17:43:59;2.50;;;0.90;;
19161;SDS011;9713;48.140;11.530;2023-03-31T17:47:42;2.60;;;0.70;;
19161;SDS011;9713;48.140;11.530;2023-03-31T17:51:26;1.03;;;0.80;;
19161;SDS011;9713;48.140;11.530;2023-03-31T17:55:10;2.63;;;0.87;;
19161;SDS011;9713;48.140;11.530;2023-03-31T17:58:54;2.97;;;0.70;;
19161;SDS011;9713;48.140;11.530;2023-03-31T18:02:37;1.97;;;0.60;;
19161;SDS011;9713;48.140;11.530;2023-03-31T18:06:21;3.03;;;0.77;;
19161;SDS011;9713;48.140;11.530;2023-03-31T18:10:04;1.53;;;0.77;;
19161;SDS011;9713;48.140;11.530;2023-03-31T18:13:49;1.10;;;0.63;;
19161;SDS011;9713;48.140;11.530;2023-03-31T18:17:32;1.30;;;0.60;;
19161;SDS011;9713;48.140;11.530;2023-03-31T18:21:15;1.83;;;0.77;;
19161;SDS011;9713;48.140;11.530;2023-03-31T18:24:57;2.97;;;0.70;;
19161;SDS011;9713;48.140;11.530;2023-03-31T18:28:40;3.03;;;0.83;;
19161;SDS011;9713;48.140;11.530;2023-03-31T18:32:24;4.27;;;0.90;;
19161;SDS011;9713;48.140;11.530;2023-03-31T18:36:08;4.57;;;0.80;;
19161;SDS011;9713;48.140;11.530;2023-03-31T18:39:55;2.17;;;0.70;;
19161;SDS011;9713;48.140;11.530;2023-03-31T18:43:38;2.20;;;0.70;;
19161;SDS011;9713;48.140;11.530;2023-03-31T18:47:21;1.43;;;0.63;;
19161;SDS011;9713;48.140;11.530;2023-03-31T18:51:06;2.10;;;0.70;;
19161;SDS011;9713;48.140;11.530;2023-03-31T18:54:49;2.53;;;1.00;;
19161;SDS011;9713;48.140;11.530;2023-03-31T18:58:33;1.93;;;0.80;;
19161;SDS011;9713;48.140;11.530;2023-03-31T19:02:15;0.80;;;0.50;;
19161;SDS011;9713;48.140;11.530;2023-03-31T19:05:59;4.33;;;0.70;;
19161;SDS011;9713;48.140;11.530;2023-03-31T19:09:44;1.83;;;0.80;;
19161;SDS011;9713;48.140;11.530;2023-03-31T19:13:27;2.83;;;1.20;;
19161;SDS011;9713;48.140;11.530;2023-03-31T19:17:09;2.03;;;0.70;;
19161;SDS011;9713;48.140;11.530;2023-03-31T19:20:52;2.50;;;0.90;;
19161;SDS011;9713;48.140;11.530;2023-03-31T19:24:35;32.83;;;12.53;;
19161;SDS011;9713;48.140;11.530;2023-03-31T19:28:20;3.00;;;0.80;;
19161;SDS011;9713;48.140;11.530;2023-03-31T19:32:03;3.33;;;0.70;;
19161;SDS011;9713;48.140;11.530;2023-03-31T19:35:47;2.77;;;0.60;;
19161;SDS011;9713;48.140;11.530;2023-03-31T19:39:31;3.47;;;0.70;;
19161;SDS011;9713;48.140;11.530;2023-03-31T19:43:14;5.13;;;0.93;;
19161;SDS011;9713;48.140;11.530;2023-03-31T19:47:01;3.37;;;0.83;;
19161;SDS011;9713;48.140;11.530;2023-03-31T19:50:44;3.17;;;0.70;;
19161;SDS011;9713;48.140;11.530;2023-03-31T19:54:28;1.57;;;0.80;;
19161;SDS011;9713;48.140;11.530;2023-03-31T19:58:11;2.77;;;0.90;;
19161;SDS011;9713;48.140;11.530;2023-03-31T20:01:54;3.20;;;0.90;;
19161;SDS011;9713;48.140;11.530;2023-03-31T20:05:39;2.80;;;1.00;;
19161;SDS011;9713;48.140;11.530;2023-03-31T20:09:22;3.27;;;0.80;;
19161;SDS011;9713;48.140;11.530;2023-03-31T20:13:05;3.47;;;0.90;;
19161;SDS011;9713;48.140;11.530;2023-03-31T20:16:48;4.07;;;1.37;;
19161;SDS011;9713;48.140;11.530;2023-03-31T20:20:32;3.87;;;1.30;;
19161;SDS011;9713;48.140;11.530;2023-03-31T20:24:17;3.20;;;1.07;;
19161;SDS011;9713;48.140;11.530;2023-03-31T20:28:00;2.60;;;1.07;;
19161;SDS011;9713;48.140;11.530;2023-03-31T20:31:43;4.17;;;1.40;;
19161;SDS011;9713;48.140;11.530;2023-03-31T20:35:26;5.13;;;1.10;;
19161;SDS011;9713;48.140;11.530;2023-03-31T20:39:09;4.00;;;1.10;;
19161;SDS011;9713;48.140;11.530;2023-03-31T20:42:55;5.43;;;1.00;;
19161;SDS011;9713;48.140;11.530;2023-03-31T20:46:38;5.10;;;0.87;;
19161;SDS011;9713;48.140;11.530;2023-03-31T20:50:21;4.43;;;0.80;;
19161;SDS011;9713;48.140;11.530;2023-03-31T20:54:04;4.10;;;1.03;;
19161;SDS011;9713;48.140;11.530;2023-03-31T20:57:48;5.47;;;1.00;;
19161;SDS011;9713;48.140;11.530;2023-03-31T21:01:35;4.43;;;1.10;;
19161;SDS011;9713;48.140;11.530;2023-03-31T21:05:18;3.70;;;0.73;;
19161;SDS011;9713;48.140;11.530;2023-03-31T21:09:01;2.53;;;1.00;;
19161;SDS011;9713;48.140;11.530;2023-03-31T21:12:44;4.43;;;1.00;;
19161;SDS011;9713;48.140;11.530;2023-03-31T21:16:27;4.40;;;1.03;;
19161;SDS011;9713;48.140;11.530;2023-03-31T21:20:11;4.90;;;1.20;;
19161;SDS011;9713;48.140;11.530;2023-03-31T21:23:54;7.27;;;1.10;;
19161;SDS011;9713;48.140;11.530;2023-03-31T21:27:37;6.50;;;1.13;;
19161;SDS011;9713;48.140;11.530;2023-03-31T21:31:20;3.33;;;1.03;;
19161;SDS011;9713;48.140;11.530;2023-03-31T21:35:04;4.27;;;0.80;;
19161;SDS011;9713;48.140;11.530;2023-03-31T21:38:49;3.90;;;0.70;;
19161;SDS011;9713;48.140;11.530;2023-03-31T21:42:33;3.30;;;0.70;;
19161;SDS011;9713;48.140;11.530;2023-03-31T21:46:17;1.50;;;0.80;;
19161;SDS011;9713;48.140;11.530;2023-03-31T21:50:00;1.97;;;0.70;;
19161;SDS011;9713;48.140;11.530;2023-03-31T21:53:43;3.63;;;0.70;;
19161;SDS011;9713;48.140;11.530;2023-03-31T21:57:27;2.33;;;0.70;;
19161;SDS011;9713;48.140;11.530;2023-03-31T22:01:10;2.27;;;0.80;;
19161;SDS011;9713;48.140;11.530;2023-03-31T22:04:53;2.57;;;0.50;;
19161;SDS011;9713;48.140;11.530;2023-03-31T22:08:36;2.80;;;0.77;;
19161;SDS011;9713;48.140;11.530;2023-03-31T22:12:20;3.50;;;0.60;;
19161;SDS011;9713;48.140;11.530;2023-03-31T22:16:04;2.40;;;0.50;;
19161;SDS011;9713;48.140;11.530;2023-03-31T22:19:51;3.17;;;0.77;;
19161;SDS011;9713;48.140;11.530;2023-03-31T22:23:34;3.97;;;0.50;;
19161;SDS011;9713;48.140;11.530;2023-03-31T22:27:17;10.43;;;0.60;;
19161;SDS011;9713;48.140;11.530;2023-03-31T22:31:04;2.10;;;0.50;;
19161;SDS011;9713;48.140;11.530;2023-03-31T22:34:46;1.80;;;0.50;;
19161;SDS011;9713;48.140;11.530;2023-03-31T22:38:29;2.17;;;0.70;;
19161;SDS011;9713;48.140;11.530;2023-03-31T22:42:12;0.77;;;0.40;;
19161;SDS011;9713;48.140;11.530;2023-03-31T22:45:55;1.97;;;0.60;;
19161;SDS011;9713;48.140;11.530;2023-03-31T22:49:39;1.30;;;0.40;;
19161;SDS011;9713;48.140;11.530;2023-03-31T22:53:21;2.70;;;0.70;;
19161;SDS011;9713;48.140;11.530;2023-03-31T22:57:04;2.97;;;0.50;;
19161;SDS011;9713;48.140;11.530;2023-03-31T23:00:53;3.27;;;0.63;;
19161;SDS011;9713;48.140;11.530;2023-03-31T23:04:36;3.60;;;0.50;;